createdAt,value
2018-06-24T00:00:17.688Z,14.12
2018-06-24T00:01:18.259Z,14.14
2018-06-24T00:02:18.821Z,14.15
2018-06-24T00:03:19.359Z,14.19
2018-06-24T00:04:19.908Z,14.18
2018-06-24T00:05:20.455Z,14.15
2018-06-24T00:06:21.004Z,14.15
2018-06-24T00:07:21.557Z,14.07
2018-06-24T00:08:22.110Z,14.17
2018-06-24T00:09:22.654Z,14.18
2018-06-24T00:10:23.202Z,14.18
2018-06-24T00:11:23.752Z,14.18
2018-06-24T00:12:24.301Z,14.17
2018-06-24T00:13:24.851Z,14.18
2018-06-24T00:14:25.401Z,14.18
2018-06-24T00:15:25.949Z,14.18
2018-06-24T00:16:26.501Z,14.10
2018-06-24T00:17:27.045Z,14.19
2018-06-24T00:18:27.644Z,14.11
2018-06-24T00:19:28.195Z,14.14
2018-06-24T00:20:28.743Z,14.12
2018-06-24T00:21:29.291Z,14.17
2018-06-24T00:22:29.838Z,14.21
2018-06-24T00:23:30.384Z,14.18
2018-06-24T00:24:30.928Z,14.23
2018-06-24T00:25:31.478Z,14.10
2018-06-24T00:26:32.027Z,14.23
2018-06-24T00:27:32.575Z,14.17
2018-06-24T00:28:33.119Z,14.11
2018-06-24T00:29:33.669Z,14.07
2018-06-24T00:30:34.261Z,14.14
2018-06-24T00:31:34.776Z,14.12
2018-06-24T00:32:35.315Z,14.18
2018-06-24T00:33:35.864Z,14.11
2018-06-24T00:34:36.410Z,14.08
2018-06-24T00:35:36.963Z,14.07
2018-06-24T00:36:37.514Z,14.07
2018-06-24T00:37:38.062Z,14.05
2018-06-24T00:38:38.613Z,14.05
2018-06-24T00:39:39.163Z,14.00
2018-06-24T00:40:39.708Z,14.07
2018-06-24T00:41:40.267Z,14.05
2018-06-24T00:42:40.823Z,14.10
2018-06-24T00:43:41.374Z,14.07
2018-06-24T00:44:41.923Z,14.11
2018-06-24T00:45:42.476Z,14.14
2018-06-24T00:46:43.023Z,14.17
2018-06-24T00:47:43.575Z,14.12
2018-06-24T00:48:44.123Z,14.17
2018-06-24T00:49:44.673Z,14.14
2018-06-24T00:50:45.220Z,14.08
2018-06-24T00:51:45.772Z,14.17
2018-06-24T00:52:46.320Z,14.10
2018-06-24T00:53:46.868Z,14.08
2018-06-24T00:54:47.414Z,14.14
2018-06-24T00:55:47.965Z,14.14
2018-06-24T00:56:48.515Z,14.14
2018-06-24T00:57:49.061Z,14.00
2018-06-24T00:58:49.613Z,14.08
2018-06-24T00:59:50.158Z,14.08
2018-06-24T01:00:50.706Z,14.11
2018-06-24T01:01:51.255Z,14.02
2018-06-24T01:02:51.796Z,14.02
2018-06-24T01:03:52.351Z,14.00
2018-06-24T01:04:52.899Z,14.02
2018-06-24T01:05:53.566Z,14.03
2018-06-24T01:06:54.108Z,14.07
2018-06-24T01:07:54.656Z,14.02
2018-06-24T01:08:55.207Z,13.93
2018-06-24T01:09:55.747Z,14.02
2018-06-24T01:10:56.298Z,13.93
2018-06-24T01:11:56.846Z,13.99
2018-06-24T01:12:57.395Z,14.02
2018-06-24T01:13:57.945Z,14.02
2018-06-24T01:14:58.493Z,14.00
2018-06-24T01:15:59.040Z,14.00
2018-06-24T01:16:59.584Z,14.08
2018-06-24T01:18:00.129Z,14.02
2018-06-24T01:19:00.676Z,14.08
2018-06-24T01:20:01.225Z,14.05
2018-06-24T01:21:01.771Z,14.11
2018-06-24T01:22:02.318Z,14.11
2018-06-24T01:23:02.861Z,14.14
2018-06-24T01:24:03.415Z,14.05
2018-06-24T01:25:03.962Z,14.12
2018-06-24T01:26:04.507Z,14.14
2018-06-24T01:27:05.055Z,14.11
2018-06-24T01:28:05.604Z,14.11
2018-06-24T01:29:06.153Z,14.03
2018-06-24T01:30:06.697Z,14.08
2018-06-24T01:31:07.247Z,14.08
2018-06-24T01:32:07.800Z,14.10
2018-06-24T01:33:08.344Z,14.05
2018-06-24T01:34:08.895Z,14.08
2018-06-24T01:35:09.445Z,14.11
2018-06-24T01:36:09.991Z,14.10
2018-06-24T01:37:10.538Z,14.17
2018-06-24T01:38:11.089Z,14.08
2018-06-24T01:39:11.639Z,14.05
2018-06-24T01:40:12.191Z,14.05
2018-06-24T01:41:12.740Z,14.00
2018-06-24T01:42:13.287Z,14.02
2018-06-24T01:43:13.827Z,13.94
2018-06-24T01:44:14.376Z,13.84
2018-06-24T01:45:14.922Z,13.89
2018-06-24T01:46:15.467Z,13.89
2018-06-24T01:47:16.019Z,13.87
2018-06-24T01:48:16.554Z,13.87
2018-06-24T01:49:17.105Z,13.89
2018-06-24T01:50:17.646Z,13.87
2018-06-24T01:51:18.196Z,13.87
2018-06-24T01:52:18.745Z,13.77
2018-06-24T01:53:19.292Z,13.74
2018-06-24T01:54:19.844Z,13.75
2018-06-24T01:55:20.394Z,13.75
2018-06-24T01:56:20.943Z,13.78
2018-06-24T01:57:21.489Z,13.77
2018-06-24T01:58:22.040Z,13.72
2018-06-24T01:59:22.590Z,13.79
2018-06-24T02:00:23.139Z,13.75
2018-06-24T02:01:23.687Z,13.71
2018-06-24T02:02:24.235Z,13.71
2018-06-24T02:03:24.785Z,13.71
2018-06-24T02:04:25.334Z,13.69
2018-06-24T02:05:25.879Z,13.72
2018-06-24T02:06:26.427Z,13.68
2018-06-24T02:07:26.980Z,13.61
2018-06-24T02:08:27.531Z,13.60
2018-06-24T02:09:28.084Z,13.64
2018-06-24T02:10:28.626Z,13.64
2018-06-24T02:11:29.184Z,13.52
2018-06-24T02:12:29.726Z,13.52
2018-06-24T02:13:30.273Z,13.52
2018-06-24T02:14:30.823Z,13.57
2018-06-24T02:15:31.369Z,13.49
2018-06-24T02:16:31.917Z,13.50
2018-06-24T02:17:32.465Z,13.44
2018-06-24T02:18:33.022Z,13.49
2018-06-24T02:19:33.563Z,13.49
2018-06-24T02:20:34.109Z,13.46
2018-06-24T02:21:34.660Z,13.46
2018-06-24T02:22:35.205Z,13.44
2018-06-24T02:23:35.749Z,13.44
2018-06-24T02:24:36.292Z,13.44
2018-06-24T02:25:36.836Z,13.42
2018-06-24T02:26:37.384Z,13.41
2018-06-24T02:27:37.933Z,13.38
2018-06-24T02:28:38.475Z,13.30
2018-06-24T02:29:39.024Z,13.36
2018-06-24T02:30:39.580Z,13.31
2018-06-24T02:31:40.127Z,13.35
2018-06-24T02:32:40.672Z,13.26
2018-06-24T02:33:41.227Z,13.26
2018-06-24T02:34:41.774Z,13.20
2018-06-24T02:35:42.316Z,13.26
2018-06-24T02:36:42.861Z,13.19
2018-06-24T02:37:43.415Z,13.22
2018-06-24T02:38:43.959Z,13.22
2018-06-24T02:39:44.503Z,13.20
2018-06-24T02:40:45.054Z,13.16
2018-06-24T02:41:45.609Z,13.19
2018-06-24T02:42:46.155Z,13.19
2018-06-24T02:43:46.700Z,13.18
2018-06-24T02:44:47.245Z,13.00
2018-06-24T02:45:47.798Z,13.00
2018-06-24T02:46:48.345Z,13.00
2018-06-24T02:47:48.893Z,13.07
2018-06-24T02:48:49.445Z,13.13
2018-06-24T02:49:49.998Z,13.00
2018-06-24T02:50:50.539Z,13.01
2018-06-24T02:51:51.088Z,13.02
2018-06-24T02:52:51.907Z,13.04
2018-06-24T02:53:52.201Z,13.07
2018-06-24T02:54:52.731Z,13.13
2018-06-24T02:55:53.277Z,13.01
2018-06-24T02:56:53.825Z,13.04
2018-06-24T02:57:54.377Z,13.05
2018-06-24T02:58:54.925Z,13.02
2018-06-24T02:59:55.473Z,13.04
2018-06-24T03:00:56.023Z,12.98
2018-06-24T03:01:56.577Z,13.08
2018-06-24T03:02:57.126Z,13.13
2018-06-24T03:03:57.724Z,13.05
2018-06-24T03:04:58.267Z,13.02
2018-06-24T03:05:58.822Z,13.10
2018-06-24T03:06:59.369Z,13.01
2018-06-24T03:07:59.923Z,12.98
2018-06-24T03:09:00.471Z,13.00
2018-06-24T03:10:01.040Z,12.97
2018-06-24T03:11:01.628Z,12.98
2018-06-24T03:12:02.171Z,12.89
2018-06-24T03:13:02.720Z,12.90
2018-06-24T03:14:03.273Z,12.89
2018-06-24T03:15:03.823Z,12.87
2018-06-24T03:16:04.376Z,12.82
2018-06-24T03:17:04.924Z,12.83
2018-06-24T03:18:05.475Z,12.80
2018-06-24T03:19:06.024Z,12.79
2018-06-24T03:20:06.579Z,12.80
2018-06-24T03:21:07.130Z,12.77
2018-06-24T03:22:07.684Z,12.86
2018-06-24T03:23:08.238Z,12.86
2018-06-24T03:24:08.783Z,12.80
2018-06-24T03:25:09.334Z,12.83
2018-06-24T03:26:10.221Z,12.79
2018-06-24T03:27:10.433Z,12.82
2018-06-24T03:28:10.988Z,12.77
2018-06-24T03:29:11.540Z,12.80
2018-06-24T03:30:12.091Z,12.82
2018-06-24T03:31:12.969Z,12.72
2018-06-24T03:32:13.188Z,12.79
2018-06-24T03:33:13.741Z,12.71
2018-06-24T03:34:14.292Z,12.77
2018-06-24T03:35:14.844Z,12.75
2018-06-24T03:36:15.397Z,12.76
2018-06-24T03:37:15.954Z,12.69
2018-06-24T03:38:16.503Z,12.71
2018-06-24T03:39:17.048Z,12.69
2018-06-24T03:40:17.603Z,12.72
2018-06-24T03:41:18.150Z,12.65
2018-06-24T03:42:18.705Z,12.60
2018-06-24T03:43:19.256Z,12.55
2018-06-24T03:44:19.805Z,12.62
2018-06-24T03:45:20.363Z,12.67
2018-06-24T03:46:20.912Z,12.58
2018-06-24T03:47:21.462Z,12.58
2018-06-24T03:48:22.016Z,12.44
2018-06-24T03:49:22.564Z,12.52
2018-06-24T03:50:23.118Z,12.52
2018-06-24T03:51:23.667Z,12.55
2018-06-24T03:52:24.223Z,12.52
2018-06-24T03:53:24.774Z,12.55
2018-06-24T03:54:25.327Z,12.50
2018-06-24T03:55:25.879Z,12.47
2018-06-24T03:56:26.432Z,12.50
2018-06-24T03:57:26.987Z,12.39
2018-06-24T03:58:27.539Z,12.50
2018-06-24T03:59:28.095Z,12.46
2018-06-24T04:00:28.644Z,12.49
2018-06-24T04:01:29.202Z,12.49
2018-06-24T04:02:29.755Z,12.47
2018-06-24T04:03:30.307Z,12.53
2018-06-24T04:04:30.857Z,12.46
2018-06-24T04:05:31.410Z,12.39
2018-06-24T04:06:31.960Z,12.46
2018-06-24T04:07:32.514Z,12.44
2018-06-24T04:08:33.069Z,12.52
2018-06-24T04:09:33.618Z,12.49
2018-06-24T04:10:34.171Z,12.57
2018-06-24T04:11:34.723Z,12.47
2018-06-24T04:12:35.275Z,12.52
2018-06-24T04:13:35.832Z,12.53
2018-06-24T04:14:36.382Z,12.62
2018-06-24T04:15:36.930Z,12.67
2018-06-24T04:16:37.485Z,12.60
2018-06-24T04:17:38.036Z,12.69
2018-06-24T04:18:38.591Z,12.72
2018-06-24T04:19:39.141Z,12.65
2018-06-24T04:20:39.699Z,12.76
2018-06-24T04:21:40.249Z,12.82
2018-06-24T04:22:40.803Z,12.80
2018-06-24T04:23:41.361Z,12.83
2018-06-24T04:24:41.909Z,12.86
2018-06-24T04:25:42.494Z,12.97
2018-06-24T04:26:43.013Z,12.97
2018-06-24T04:27:43.562Z,13.01
2018-06-24T04:28:44.114Z,13.05
2018-06-24T04:29:44.667Z,13.13
2018-06-24T04:30:45.222Z,13.08
2018-06-24T04:31:45.777Z,13.22
2018-06-24T04:32:46.333Z,13.27
2018-06-24T04:33:46.890Z,13.27
2018-06-24T04:34:47.443Z,13.33
2018-06-24T04:35:47.995Z,13.36
2018-06-24T04:36:48.549Z,13.36
2018-06-24T04:37:49.096Z,13.35
2018-06-24T04:38:49.651Z,13.44
2018-06-24T04:39:50.202Z,13.49
2018-06-24T04:40:50.759Z,13.46
2018-06-24T04:41:51.315Z,13.42
2018-06-24T04:42:51.872Z,13.44
2018-06-24T04:43:52.427Z,13.39
2018-06-24T04:44:52.983Z,13.46
2018-06-24T04:45:53.538Z,13.45
2018-06-24T04:46:54.089Z,13.46
2018-06-24T04:47:54.643Z,13.45
2018-06-24T04:48:55.197Z,13.53
2018-06-24T04:49:55.755Z,13.52
2018-06-24T04:50:56.312Z,13.61
2018-06-24T04:51:56.869Z,13.57
2018-06-24T04:52:57.420Z,13.57
2018-06-24T04:53:57.968Z,13.61
2018-06-24T04:54:58.517Z,13.54
2018-06-24T04:55:59.072Z,13.54
2018-06-24T04:56:59.629Z,13.64
2018-06-24T04:58:00.188Z,13.60
2018-06-24T04:59:00.741Z,13.61
2018-06-24T05:00:01.291Z,13.69
2018-06-24T05:01:01.847Z,13.63
2018-06-24T05:02:02.403Z,13.60
2018-06-24T05:03:02.958Z,13.59
2018-06-24T05:04:03.514Z,13.72
2018-06-24T05:05:04.066Z,13.74
2018-06-24T05:06:04.616Z,13.72
2018-06-24T05:07:05.173Z,13.72
2018-06-24T05:08:05.729Z,13.77
2018-06-24T05:09:06.288Z,13.81
2018-06-24T05:10:06.845Z,13.93
2018-06-24T05:11:07.395Z,13.92
2018-06-24T05:12:07.945Z,13.94
2018-06-24T05:13:08.496Z,14.05
2018-06-24T05:14:09.053Z,14.10
2018-06-24T05:15:09.610Z,14.17
2018-06-24T05:16:10.168Z,14.23
2018-06-24T05:17:10.729Z,14.18
2018-06-24T05:18:11.282Z,14.36
2018-06-24T05:19:11.839Z,14.48
2018-06-24T05:20:12.396Z,14.55
2018-06-24T05:21:12.953Z,14.84
2018-06-24T05:22:13.517Z,15.21
2018-06-24T05:23:14.070Z,15.58
2018-06-24T05:24:14.624Z,15.91
2018-06-24T05:25:15.184Z,15.77
2018-06-24T05:26:15.741Z,15.84
2018-06-24T05:27:16.307Z,15.69
2018-06-24T05:28:16.878Z,15.65
2018-06-24T05:29:17.427Z,15.68
2018-06-24T05:30:19.043Z,15.71
2018-06-24T05:31:18.543Z,15.95
2018-06-24T05:32:19.092Z,16.13
2018-06-24T05:33:19.654Z,16.17
2018-06-24T05:34:20.220Z,16.43
2018-06-24T05:35:20.780Z,16.75
2018-06-24T05:36:21.343Z,17.01
2018-06-24T05:37:21.904Z,17.14
2018-06-24T05:38:22.465Z,16.90
2018-06-24T05:39:23.023Z,16.94
2018-06-24T05:40:23.588Z,16.82
2018-06-24T05:41:24.150Z,16.58
2018-06-24T05:42:24.705Z,16.50
2018-06-24T05:43:25.262Z,16.45
2018-06-24T05:44:25.814Z,16.35
2018-06-24T05:45:26.376Z,16.39
2018-06-24T05:46:26.937Z,16.32
2018-06-24T05:47:27.500Z,16.36
2018-06-24T05:48:28.060Z,16.24
2018-06-24T05:49:28.620Z,16.35
2018-06-24T05:50:29.175Z,16.20
2018-06-24T05:51:29.735Z,16.15
2018-06-24T05:52:30.295Z,16.12
2018-06-24T05:53:30.848Z,15.89
2018-06-24T05:54:31.410Z,15.83
2018-06-24T05:55:31.967Z,15.77
2018-06-24T05:56:32.522Z,15.80
2018-06-24T05:57:33.075Z,15.69
2018-06-24T05:58:33.639Z,15.73
2018-06-24T05:59:34.195Z,15.75
2018-06-24T06:00:34.749Z,15.84
2018-06-24T06:01:35.306Z,15.82
2018-06-24T06:02:35.861Z,15.84
2018-06-24T06:03:36.420Z,15.86
2018-06-24T06:04:36.981Z,15.83
2018-06-24T06:05:37.539Z,15.91
2018-06-24T06:06:38.097Z,15.84
2018-06-24T06:07:38.660Z,15.98
2018-06-24T06:08:39.216Z,15.95
2018-06-24T06:09:39.769Z,16.01
2018-06-24T06:10:40.327Z,16.05
2018-06-24T06:11:40.907Z,16.10
2018-06-24T06:12:41.443Z,16.05
2018-06-24T06:13:41.993Z,16.05
2018-06-24T06:14:42.560Z,16.21
2018-06-24T06:15:43.110Z,16.31
2018-06-24T06:16:43.665Z,16.35
2018-06-24T06:17:44.230Z,16.39
2018-06-24T06:18:44.785Z,16.41
2018-06-24T06:19:45.345Z,16.57
2018-06-24T06:20:45.902Z,16.61
2018-06-24T06:21:46.471Z,16.66
2018-06-24T06:22:47.015Z,16.69
2018-06-24T06:23:47.574Z,16.82
2018-06-24T06:24:48.135Z,16.83
2018-06-24T06:25:48.696Z,16.89
2018-06-24T06:26:49.256Z,17.04
2018-06-24T06:27:49.819Z,16.97
2018-06-24T06:28:50.379Z,16.98
2018-06-24T06:29:50.933Z,16.86
2018-06-24T06:30:51.488Z,16.90
2018-06-24T06:31:52.052Z,17.04
2018-06-24T06:32:52.613Z,16.98
2018-06-24T06:33:53.173Z,16.97
2018-06-24T06:34:53.735Z,16.96
2018-06-24T06:35:54.296Z,16.97
2018-06-24T06:36:54.886Z,17.04
2018-06-24T06:37:55.453Z,16.91
2018-06-24T06:38:55.967Z,16.73
2018-06-24T06:39:56.528Z,16.86
2018-06-24T06:40:57.090Z,16.75
2018-06-24T06:41:57.650Z,16.87
2018-06-24T06:42:58.205Z,16.90
2018-06-24T06:43:58.761Z,17.04
2018-06-24T06:44:59.413Z,17.06
2018-06-24T06:45:59.877Z,17.04
2018-06-24T06:47:00.437Z,16.96
2018-06-24T06:48:00.995Z,17.04
2018-06-24T06:49:01.557Z,17.04
2018-06-24T06:50:02.117Z,16.96
2018-06-24T06:51:02.710Z,17.08
2018-06-24T06:52:03.238Z,17.14
2018-06-24T06:53:03.791Z,17.14
2018-06-24T06:54:04.348Z,17.11
2018-06-24T06:55:04.907Z,17.14
2018-06-24T06:56:05.461Z,17.16
2018-06-24T06:57:06.018Z,17.19
2018-06-24T06:58:06.578Z,17.44
2018-06-24T06:59:07.144Z,17.56
2018-06-24T07:00:07.707Z,17.85
2018-06-24T07:01:08.265Z,17.93
2018-06-24T07:02:08.856Z,17.83
2018-06-24T07:03:09.404Z,17.65
2018-06-24T07:04:09.966Z,17.46
2018-06-24T07:05:10.524Z,17.64
2018-06-24T07:06:11.085Z,17.63
2018-06-24T07:07:11.636Z,17.60
2018-06-24T07:08:12.199Z,17.54
2018-06-24T07:09:12.761Z,17.56
2018-06-24T07:10:13.326Z,17.64
2018-06-24T07:11:13.888Z,17.75
2018-06-24T07:12:14.450Z,17.72
2018-06-24T07:13:15.015Z,17.59
2018-06-24T07:14:15.567Z,17.56
2018-06-24T07:15:16.126Z,17.59
2018-06-24T07:16:16.690Z,17.63
2018-06-24T07:17:17.250Z,17.80
2018-06-24T07:18:17.810Z,17.82
2018-06-24T07:19:18.370Z,18.00
2018-06-24T07:20:18.935Z,18.12
2018-06-24T07:21:19.498Z,18.11
2018-06-24T07:22:20.060Z,18.29
2018-06-24T07:23:20.633Z,18.30
2018-06-24T07:24:21.195Z,18.16
2018-06-24T07:25:21.752Z,18.00
2018-06-24T07:26:22.315Z,17.93
2018-06-24T07:27:22.875Z,17.86
2018-06-24T07:28:23.439Z,17.97
2018-06-24T07:29:24.001Z,17.89
2018-06-24T07:30:24.561Z,17.97
2018-06-24T07:31:25.117Z,17.95
2018-06-24T07:32:25.683Z,18.00
2018-06-24T07:33:26.314Z,18.11
2018-06-24T07:34:26.801Z,18.12
2018-06-24T07:35:27.364Z,18.11
2018-06-24T07:36:27.923Z,18.07
2018-06-24T07:37:28.482Z,18.14
2018-06-24T07:38:29.067Z,18.23
2018-06-24T07:39:29.608Z,18.34
2018-06-24T07:40:30.164Z,18.35
2018-06-24T07:41:30.727Z,18.32
2018-06-24T07:42:31.287Z,18.32
2018-06-24T07:43:31.853Z,18.23
2018-06-24T07:44:32.409Z,18.25
2018-06-24T07:45:32.966Z,18.11
2018-06-24T07:46:33.536Z,18.19
2018-06-24T07:47:34.089Z,17.98
2018-06-24T07:48:35.649Z,18.01
2018-06-24T07:49:36.204Z,18.03
2018-06-24T07:50:36.761Z,17.97
2018-06-24T07:51:37.322Z,18.00
2018-06-24T07:52:37.885Z,17.95
2018-06-24T07:53:38.447Z,17.83
2018-06-24T07:54:39.003Z,17.93
2018-06-24T07:55:39.566Z,17.98
2018-06-24T07:56:40.122Z,17.89
2018-06-24T07:57:40.685Z,17.97
2018-06-24T07:58:41.249Z,18.11
2018-06-24T07:59:41.810Z,18.01
2018-06-24T08:00:42.365Z,17.86
2018-06-24T08:01:42.927Z,17.83
2018-06-24T08:02:43.485Z,17.79
2018-06-24T08:03:44.048Z,17.87
2018-06-24T08:04:44.606Z,18.04
2018-06-24T08:05:45.192Z,18.07
2018-06-24T08:06:45.738Z,17.90
2018-06-24T08:07:46.297Z,17.82
2018-06-24T08:08:46.857Z,17.77
2018-06-24T08:09:47.418Z,17.71
2018-06-24T08:10:47.977Z,17.56
2018-06-24T08:11:48.540Z,17.64
2018-06-24T08:12:49.095Z,17.59
2018-06-24T08:13:49.650Z,17.67
2018-06-24T08:14:50.205Z,17.79
2018-06-24T08:15:50.762Z,17.87
2018-06-24T08:16:51.321Z,17.86
2018-06-24T08:17:51.875Z,17.80
2018-06-24T08:18:52.440Z,17.90
2018-06-24T08:19:52.997Z,17.97
2018-06-24T08:20:53.555Z,17.90
2018-06-24T08:21:54.115Z,17.86
2018-06-24T08:22:54.676Z,17.82
2018-06-24T08:23:55.237Z,17.86
2018-06-24T08:24:55.796Z,17.92
2018-06-24T08:25:56.358Z,17.83
2018-06-24T08:26:56.919Z,17.87
2018-06-24T08:27:57.474Z,17.83
2018-06-24T08:28:58.037Z,17.93
2018-06-24T08:29:58.595Z,18.04
2018-06-24T08:30:59.149Z,17.98
2018-06-24T08:31:59.706Z,18.07
2018-06-24T08:33:00.269Z,18.00
2018-06-24T08:34:00.828Z,18.00
2018-06-24T08:35:01.389Z,17.90
2018-06-24T08:36:01.948Z,17.87
2018-06-24T08:37:02.502Z,18.01
2018-06-24T08:38:03.070Z,18.16
2018-06-24T08:39:03.631Z,18.11
2018-06-24T08:40:04.186Z,18.16
2018-06-24T08:41:04.745Z,17.93
2018-06-24T08:42:05.314Z,17.90
2018-06-24T08:43:05.867Z,18.01
2018-06-24T08:44:06.434Z,18.01
2018-06-24T08:45:06.986Z,17.89
2018-06-24T08:46:07.543Z,17.93
2018-06-24T08:47:08.098Z,17.97
2018-06-24T08:48:08.657Z,18.08
2018-06-24T08:49:09.216Z,18.07
2018-06-24T08:50:09.777Z,18.16
2018-06-24T08:51:10.331Z,18.27
2018-06-24T08:52:10.890Z,18.32
2018-06-24T08:53:11.449Z,18.30
2018-06-24T08:54:12.111Z,18.30
2018-06-24T08:55:12.566Z,18.23
2018-06-24T08:56:13.128Z,18.23
2018-06-24T08:57:13.684Z,18.19
2018-06-24T08:58:14.243Z,18.16
2018-06-24T08:59:14.802Z,18.14
2018-06-24T09:00:15.361Z,18.14
2018-06-24T09:01:15.924Z,18.22
2018-06-24T09:02:16.481Z,18.25
2018-06-24T09:03:17.044Z,18.38
2018-06-24T09:04:17.600Z,18.43
2018-06-24T09:05:18.161Z,18.34
2018-06-24T09:06:18.722Z,18.55
2018-06-24T09:07:19.276Z,18.85
2018-06-24T09:08:19.839Z,18.87
2018-06-24T09:09:20.405Z,19.04
2018-06-24T09:10:20.963Z,19.15
2018-06-24T09:11:21.530Z,19.16
2018-06-24T09:12:22.088Z,19.04
2018-06-24T09:13:22.648Z,19.22
2018-06-24T09:14:23.210Z,19.34
2018-06-24T09:15:23.772Z,19.62
2018-06-24T09:16:24.329Z,19.67
2018-06-24T09:17:24.884Z,19.84
2018-06-24T09:18:25.439Z,19.98
2018-06-24T09:19:26.003Z,19.94
2018-06-24T09:20:26.567Z,19.71
2018-06-24T09:21:27.139Z,19.54
2018-06-24T09:22:27.692Z,19.51
2018-06-24T09:23:28.255Z,19.61
2018-06-24T09:24:28.820Z,19.74
2018-06-24T09:25:29.383Z,19.91
2018-06-24T09:26:29.945Z,20.04
2018-06-24T09:27:30.505Z,20.13
2018-06-24T09:28:31.064Z,20.19
2018-06-24T09:29:31.621Z,20.35
2018-06-24T09:30:32.182Z,20.52
2018-06-24T09:31:32.740Z,20.62
2018-06-24T09:32:33.301Z,20.63
2018-06-24T09:33:33.864Z,20.78
2018-06-24T09:34:34.415Z,20.67
2018-06-24T09:35:34.971Z,20.62
2018-06-24T09:36:35.536Z,20.77
2018-06-24T09:37:36.097Z,20.80
2018-06-24T09:38:36.659Z,21.09
2018-06-24T09:39:37.222Z,21.33
2018-06-24T09:40:37.778Z,21.25
2018-06-24T09:41:38.345Z,21.37
2018-06-24T09:42:38.915Z,21.32
2018-06-24T09:43:39.475Z,21.36
2018-06-24T09:44:40.038Z,21.36
2018-06-24T09:45:40.601Z,21.32
2018-06-24T09:46:41.166Z,21.54
2018-06-24T09:47:41.731Z,21.69
2018-06-24T09:48:42.294Z,21.67
2018-06-24T09:49:42.860Z,21.75
2018-06-24T09:50:43.428Z,21.73
2018-06-24T09:51:43.989Z,21.79
2018-06-24T09:52:44.568Z,21.65
2018-06-24T09:53:45.130Z,21.47
2018-06-24T09:54:45.683Z,21.75
2018-06-24T09:55:46.249Z,21.57
2018-06-24T09:56:46.816Z,21.42
2018-06-24T09:57:47.381Z,21.20
2018-06-24T09:58:47.945Z,21.14
2018-06-24T09:59:48.511Z,21.35
2018-06-24T10:00:49.075Z,21.40
2018-06-24T10:01:49.639Z,21.62
2018-06-24T10:02:50.206Z,21.73
2018-06-24T10:03:50.769Z,21.40
2018-06-24T10:04:51.330Z,21.39
2018-06-24T10:05:51.898Z,21.21
2018-06-24T10:06:52.470Z,21.18
2018-06-24T10:07:53.035Z,21.25
2018-06-24T10:08:53.599Z,21.51
2018-06-24T10:09:54.163Z,21.54
2018-06-24T10:10:54.728Z,21.49
2018-06-24T10:11:55.295Z,21.51
2018-06-24T10:12:55.863Z,21.64
2018-06-24T10:13:56.429Z,21.72
2018-06-24T10:14:56.996Z,21.73
2018-06-24T10:15:57.561Z,21.80
2018-06-24T10:16:58.123Z,21.70
2018-06-24T10:17:58.688Z,21.79
2018-06-24T10:18:59.258Z,21.93
2018-06-24T10:19:59.824Z,21.86
2018-06-24T10:21:00.391Z,21.95
2018-06-24T10:22:00.954Z,22.21
2018-06-24T10:23:01.532Z,22.48
2018-06-24T10:24:02.094Z,22.51
2018-06-24T10:25:02.662Z,22.78
2018-06-24T10:26:03.230Z,23.09
2018-06-24T10:27:03.808Z,22.95
2018-06-24T10:28:04.367Z,22.85
2018-06-24T10:29:04.934Z,22.95
2018-06-24T10:30:05.506Z,22.85
2018-06-24T10:31:06.070Z,22.84
2018-06-24T10:32:06.640Z,22.91
2018-06-24T10:33:07.203Z,22.78
2018-06-24T10:34:07.768Z,22.81
2018-06-24T10:35:08.334Z,22.83
2018-06-24T10:36:08.898Z,22.46
2018-06-24T10:37:09.465Z,22.55
2018-06-24T10:38:10.033Z,22.62
2018-06-24T10:39:10.599Z,22.63
2018-06-24T10:40:11.165Z,22.81
2018-06-24T10:41:11.794Z,22.93
2018-06-24T10:42:12.305Z,23.18
2018-06-24T10:43:12.870Z,23.15
2018-06-24T10:44:13.437Z,23.31
2018-06-24T10:45:14.002Z,23.47
2018-06-24T10:46:14.564Z,23.64
2018-06-24T10:47:15.124Z,23.98
2018-06-24T10:48:15.690Z,24.02
2018-06-24T10:49:16.258Z,24.18
2018-06-24T10:50:16.820Z,24.46
2018-06-24T10:51:17.388Z,24.41
2018-06-24T10:52:17.961Z,24.39
2018-06-24T10:53:18.527Z,24.43
2018-06-24T10:54:19.094Z,24.43
2018-06-24T10:55:19.660Z,24.26
2018-06-24T10:56:20.229Z,24.13
2018-06-24T10:57:20.794Z,23.69
2018-06-24T10:58:21.350Z,23.35
2018-06-24T10:59:21.923Z,23.13
2018-06-24T11:00:22.490Z,22.91
2018-06-24T11:01:23.059Z,22.81
2018-06-24T11:02:23.629Z,22.91
2018-06-24T11:03:24.199Z,23.40
2018-06-24T11:04:24.763Z,23.71
2018-06-24T11:05:25.331Z,24.03
2018-06-24T11:06:25.903Z,24.17
2018-06-24T11:07:26.470Z,24.26
2018-06-24T11:08:27.032Z,24.13
2018-06-24T11:09:27.596Z,23.98
2018-06-24T11:10:28.162Z,23.77
2018-06-24T11:11:28.726Z,23.74
2018-06-24T11:12:29.296Z,23.76
2018-06-24T11:13:29.858Z,23.83
2018-06-24T11:14:30.428Z,23.88
2018-06-24T11:15:30.997Z,24.14
2018-06-24T11:16:31.572Z,24.14
2018-06-24T11:17:32.132Z,24.20
2018-06-24T11:18:32.704Z,24.24
2018-06-24T11:19:33.267Z,24.14
2018-06-24T11:20:33.836Z,24.20
2018-06-24T11:21:34.399Z,24.24
2018-06-24T11:22:34.972Z,24.06
2018-06-24T11:23:35.537Z,24.21
2018-06-24T11:24:36.104Z,24.32
2018-06-24T11:25:36.666Z,24.45
2018-06-24T11:26:37.230Z,24.39
2018-06-24T11:27:37.794Z,24.31
2018-06-24T11:28:38.364Z,24.18
2018-06-24T11:29:38.933Z,23.87
2018-06-24T11:30:39.501Z,23.96
2018-06-24T11:31:40.064Z,23.79
2018-06-24T11:32:40.628Z,23.64
2018-06-24T11:33:41.199Z,23.72
2018-06-24T11:34:41.761Z,24.01
2018-06-24T11:35:42.330Z,24.11
2018-06-24T11:36:42.898Z,24.18
2018-06-24T11:37:43.463Z,24.28
2018-06-24T11:38:44.032Z,24.64
2018-06-24T11:39:44.599Z,24.94
2018-06-24T11:40:45.168Z,25.07
2018-06-24T11:41:45.734Z,25.53
2018-06-24T11:42:46.299Z,25.61
2018-06-24T11:43:46.867Z,25.69
2018-06-24T11:44:47.437Z,25.88
2018-06-24T11:45:48.012Z,26.24
2018-06-24T11:46:48.579Z,26.22
2018-06-24T11:47:49.180Z,26.05
2018-06-24T11:48:49.725Z,26.02
2018-06-24T11:49:50.290Z,25.95
2018-06-24T11:50:50.857Z,25.83
2018-06-24T11:51:51.428Z,25.76
2018-06-24T11:52:51.994Z,25.95
2018-06-24T11:53:52.568Z,25.88
2018-06-24T11:54:53.146Z,25.69
2018-06-24T11:55:53.720Z,25.81
2018-06-24T11:56:54.314Z,25.87
2018-06-24T11:57:54.858Z,25.84
2018-06-24T11:58:55.431Z,26.12
2018-06-24T11:59:56.005Z,26.39
2018-06-24T12:00:56.569Z,26.34
2018-06-24T12:01:57.160Z,26.29
2018-06-24T12:02:57.706Z,26.39
2018-06-24T12:03:58.277Z,26.22
2018-06-24T12:04:58.897Z,25.99
2018-06-24T12:05:59.470Z,25.57
2018-06-24T12:07:00.121Z,25.26
2018-06-24T12:08:00.611Z,25.24
2018-06-24T12:09:01.183Z,25.18
2018-06-24T12:10:01.753Z,25.53
2018-06-24T12:11:02.325Z,25.38
2018-06-24T12:12:02.885Z,25.48
2018-06-24T12:13:03.460Z,25.41
2018-06-24T12:14:04.027Z,25.58
2018-06-24T12:15:04.590Z,25.83
2018-06-24T12:16:05.156Z,26.02
2018-06-24T12:17:05.729Z,26.08
2018-06-24T12:18:06.304Z,26.03
2018-06-24T12:19:06.874Z,25.90
2018-06-24T12:20:07.440Z,25.98
2018-06-24T12:21:08.011Z,25.95
2018-06-24T12:22:08.580Z,26.12
2018-06-24T12:23:09.146Z,26.39
2018-06-24T12:24:09.702Z,26.29
2018-06-24T12:25:10.269Z,26.56
2018-06-24T12:26:10.838Z,26.68
2018-06-24T12:27:11.409Z,26.85
2018-06-24T12:28:11.983Z,27.02
2018-06-24T12:29:12.565Z,26.87
2018-06-24T12:30:13.141Z,26.48
2018-06-24T12:31:13.716Z,26.25
2018-06-24T12:32:14.291Z,26.24
2018-06-24T12:33:14.862Z,26.48
2018-06-24T12:34:15.432Z,26.29
2018-06-24T12:35:16.004Z,26.61
2018-06-24T12:36:16.574Z,26.61
2018-06-24T12:37:17.152Z,26.40
2018-06-24T12:38:17.721Z,26.58
2018-06-24T12:39:18.285Z,26.77
2018-06-24T12:40:18.849Z,26.77
2018-06-24T12:41:19.420Z,26.37
2018-06-24T12:42:19.987Z,26.24
2018-06-24T12:43:20.567Z,25.90
2018-06-24T12:44:21.130Z,25.81
2018-06-24T12:45:21.703Z,26.02
2018-06-24T12:46:22.275Z,25.99
2018-06-24T12:47:22.853Z,26.26
2018-06-24T12:48:23.411Z,26.26
2018-06-24T12:49:23.983Z,26.58
2018-06-24T12:50:24.560Z,26.76
2018-06-24T12:51:25.131Z,26.98
2018-06-24T12:52:25.702Z,26.87
2018-06-24T12:53:26.264Z,26.96
2018-06-24T12:54:26.847Z,27.00
2018-06-24T12:55:27.421Z,26.81
2018-06-24T12:56:27.986Z,26.88
2018-06-24T12:57:28.551Z,26.76
2018-06-24T12:58:29.180Z,26.78
2018-06-24T12:59:29.753Z,26.83